createdAt,value
2018-05-21T00:09:31.767Z,16.73
2018-05-21T00:12:01.048Z,16.87
2018-05-21T00:14:28.268Z,16.57
2018-05-21T00:16:54.638Z,16.00
2018-05-21T00:19:22.314Z,15.27
2018-05-21T00:21:48.939Z,15.20
2018-05-21T00:24:17.798Z,17.03
2018-05-21T00:26:44.418Z,16.87
2018-05-21T00:29:10.816Z,16.67
2018-05-21T00:31:39.040Z,16.33
2018-05-21T00:34:06.402Z,15.73
2018-05-21T00:36:34.506Z,15.63
2018-05-21T00:39:01.760Z,16.07
2018-05-21T00:41:28.908Z,16.07
2018-05-21T00:43:56.053Z,16.40
2018-05-21T00:46:22.452Z,16.20
2018-05-21T00:48:48.782Z,15.87
2018-05-21T00:51:15.798Z,16.07
2018-05-21T00:53:42.668Z,14.63
2018-05-21T00:56:09.064Z,15.60
2018-05-21T00:58:36.299Z,15.33
2018-05-21T01:01:04.282Z,14.67
2018-05-21T01:13:15.741Z,14.00
2018-05-21T01:15:42.751Z,12.97
2018-05-21T01:18:10.138Z,13.87
2018-05-21T01:20:36.544Z,15.17
2018-05-21T01:23:03.661Z,15.33
2018-05-21T01:25:30.048Z,14.77
2018-05-21T01:27:56.512Z,14.20
2018-05-21T01:30:23.859Z,15.80
2018-05-21T01:32:50.218Z,15.03
2018-05-21T01:35:16.594Z,14.27
2018-05-21T01:37:43.777Z,15.57
2018-05-21T01:40:10.148Z,15.77
2018-05-21T01:42:38.041Z,15.20
2018-05-21T01:45:05.305Z,15.43
2018-05-21T01:47:32.486Z,15.93
2018-05-21T01:49:59.390Z,15.97
2018-05-21T01:52:25.819Z,15.50
2018-05-21T01:54:53.932Z,16.90
2018-05-21T01:57:20.567Z,16.00
2018-05-21T01:59:47.756Z,15.30
2018-05-21T02:02:15.730Z,15.27
2018-05-21T02:04:42.840Z,14.17
2018-05-21T02:07:09.316Z,13.90
2018-05-21T02:09:36.308Z,15.07
2018-05-21T02:12:04.534Z,14.43
2018-05-21T02:14:32.689Z,13.60
2018-05-21T02:16:59.144Z,13.40
2018-05-21T02:19:26.362Z,13.83
2018-05-21T02:21:53.707Z,12.00
2018-05-21T02:24:20.774Z,13.30
2018-05-21T02:26:47.152Z,13.30
2018-05-21T02:29:14.256Z,13.17
2018-05-21T02:31:40.671Z,14.40
2018-05-21T02:34:07.307Z,13.00
2018-05-21T02:36:35.797Z,14.20
2018-05-21T02:39:04.080Z,15.00
2018-05-21T02:41:30.433Z,16.50
2018-05-21T02:43:56.816Z,15.97
2018-05-21T02:46:26.974Z,15.60
2018-05-21T02:48:53.751Z,15.03
2018-05-21T02:51:20.934Z,15.67
2018-05-21T03:03:33.946Z,20.77
2018-05-21T03:06:00.633Z,18.77
2018-05-21T03:08:28.646Z,19.77
2018-05-21T03:10:55.030Z,19.17
2018-05-21T03:13:22.332Z,17.17
2018-05-21T03:15:48.953Z,18.00
2018-05-21T03:18:16.302Z,19.83
2018-05-21T03:20:43.784Z,19.50
2018-05-21T03:32:57.290Z,19.40
2018-05-21T03:35:23.671Z,19.20
2018-05-21T03:37:56.058Z,19.53
2018-05-21T03:40:23.252Z,19.40
2018-05-21T03:52:35.645Z,20.10
2018-05-21T03:55:02.431Z,20.83
2018-05-21T04:07:14.302Z,22.47
2018-05-21T04:09:44.485Z,22.47
2018-05-21T04:12:10.946Z,21.23
2018-05-21T04:14:38.200Z,22.93
2018-05-21T04:17:05.662Z,21.87
2018-05-21T04:19:33.130Z,22.50
2018-05-21T04:21:59.536Z,22.10
2018-05-21T04:24:26.894Z,20.93
2018-05-21T04:26:53.402Z,22.37
2018-05-21T04:29:21.299Z,23.33
2018-05-21T04:31:48.274Z,19.93
2018-05-21T04:34:15.945Z,22.47
2018-05-21T04:36:42.294Z,23.37
2018-05-21T04:39:09.411Z,22.50
2018-05-21T04:41:35.758Z,21.40
2018-05-21T04:44:02.954Z,23.20
2018-05-21T04:46:29.632Z,23.90
2018-05-21T04:48:56.000Z,24.93
2018-05-21T04:51:23.942Z,24.07
2018-05-21T04:53:50.225Z,25.63
2018-05-21T04:56:16.544Z,26.10
2018-05-21T04:58:42.870Z,25.83
2018-05-21T05:01:09.222Z,28.17
2018-05-21T05:03:36.478Z,30.57
2018-05-21T05:06:03.676Z,27.83
2018-05-21T05:08:30.000Z,27.97
2018-05-21T05:23:51.318Z,34.73
2018-05-21T05:26:17.602Z,28.10
2018-05-21T05:28:44.638Z,29.20
2018-05-21T05:31:10.926Z,29.97
2018-05-21T05:33:37.210Z,27.70
2018-05-21T05:36:03.708Z,27.67
2018-05-21T05:38:30.737Z,28.80
2018-05-21T05:40:57.008Z,27.63
2018-05-21T05:43:23.304Z,29.13
2018-05-21T05:45:49.577Z,30.03
2018-05-21T05:48:16.604Z,29.47
2018-05-21T05:50:42.866Z,28.27
2018-05-21T05:53:09.150Z,30.37
2018-05-21T05:55:42.414Z,36.20
2018-05-21T05:58:08.764Z,33.57
2018-05-21T06:00:35.060Z,32.67
2018-05-21T06:03:01.347Z,33.50
2018-05-21T06:05:27.644Z,30.87
2018-05-21T06:07:53.939Z,32.90
2018-05-21T06:10:20.230Z,35.60
2018-05-21T06:12:46.514Z,31.60
2018-05-21T06:15:12.805Z,30.27
2018-05-21T06:17:39.105Z,36.77
2018-05-21T06:20:05.418Z,36.33
2018-05-21T06:22:31.752Z,32.53
2018-05-21T06:24:58.092Z,31.67
2018-05-21T06:27:24.391Z,32.67
2018-05-21T06:29:50.685Z,35.23
2018-05-21T06:32:17.037Z,33.93
2018-05-21T06:34:43.594Z,29.73
2018-05-21T06:37:09.888Z,31.30
2018-05-21T06:39:36.180Z,32.60
2018-05-21T06:42:02.502Z,30.30
2018-05-21T06:44:28.819Z,33.17
2018-05-21T06:46:55.102Z,33.80
2018-05-21T06:49:21.429Z,33.80
2018-05-21T06:51:47.747Z,31.00
2018-05-21T06:54:14.048Z,33.90
2018-05-21T06:56:40.353Z,33.53
2018-05-21T06:59:06.682Z,33.40
2018-05-21T07:01:33.702Z,29.70
2018-05-21T07:03:59.985Z,30.33
2018-05-21T07:06:26.288Z,29.70
2018-05-21T07:08:53.334Z,27.90
2018-05-21T07:11:19.611Z,28.73
2018-05-21T07:13:45.930Z,26.33
2018-05-21T07:16:12.260Z,26.03
2018-05-21T07:18:38.554Z,25.00
2018-05-21T07:21:05.604Z,25.13
2018-05-21T07:23:32.656Z,24.27
2018-05-21T07:25:59.669Z,25.60
2018-05-21T07:28:25.966Z,25.23
2018-05-21T07:30:52.254Z,23.70
2018-05-21T07:33:19.298Z,24.53
2018-05-21T07:35:45.676Z,22.97
2018-05-21T07:38:11.989Z,21.70
2018-05-21T07:40:38.279Z,21.43
2018-05-21T07:43:04.585Z,19.23
2018-05-21T07:45:31.194Z,19.80
2018-05-21T07:47:57.534Z,20.10
2018-05-21T07:50:23.860Z,19.87
2018-05-21T07:52:50.158Z,21.20
2018-05-21T07:55:17.214Z,20.93
2018-05-21T07:57:43.534Z,19.43
2018-05-21T08:00:10.631Z,18.07
2018-05-21T08:02:36.971Z,18.13
2018-05-21T08:05:03.346Z,17.87
2018-05-21T08:07:29.688Z,15.60
2018-05-21T08:09:56.739Z,16.20
2018-05-21T08:12:23.863Z,14.90
2018-05-21T08:14:50.296Z,15.33
2018-05-21T08:17:16.559Z,15.33
2018-05-21T08:19:43.692Z,15.43
2018-05-21T08:22:10.901Z,15.87
2018-05-21T08:24:39.119Z,14.73
2018-05-21T08:27:06.253Z,13.83
2018-05-21T08:29:33.143Z,13.87
2018-05-21T08:31:59.586Z,13.90
2018-05-21T08:34:26.003Z,14.80
2018-05-21T08:36:52.347Z,13.47
2018-05-21T08:39:18.735Z,13.47
2018-05-21T08:41:45.105Z,12.57
2018-05-21T08:44:11.488Z,11.97
2018-05-21T08:46:38.700Z,11.40
2018-05-21T08:49:05.105Z,11.27
2018-05-21T08:51:32.261Z,9.73
2018-05-21T08:53:59.367Z,9.87
2018-05-21T08:56:25.666Z,8.37
2018-05-21T08:58:52.148Z,8.13
2018-05-21T09:01:19.268Z,7.87
2018-05-21T09:03:45.618Z,7.50
2018-05-21T09:06:12.913Z,8.20
2018-05-21T09:08:39.839Z,9.60
2018-05-21T09:11:06.237Z,7.00
2018-05-21T09:13:33.299Z,7.50
2018-05-21T09:16:00.473Z,7.47
2018-05-21T09:18:27.571Z,6.87
2018-05-21T09:20:53.898Z,6.90
2018-05-21T09:23:20.207Z,5.97
2018-05-21T09:25:46.541Z,5.80
2018-05-21T09:28:12.944Z,5.63
2018-05-21T09:30:39.317Z,7.43
2018-05-21T09:42:50.662Z,7.23
2018-05-21T09:45:17.004Z,7.53
2018-05-21T09:47:43.396Z,6.07
2018-05-21T09:50:10.481Z,5.47
2018-05-21T09:52:36.812Z,6.57
2018-05-21T09:55:03.154Z,7.40
2018-05-21T10:07:14.493Z,6.80
2018-05-21T10:09:40.812Z,5.43
2018-05-21T10:12:07.211Z,7.03
2018-05-21T10:14:33.807Z,5.10
2018-05-21T10:17:00.275Z,7.27
2018-05-21T10:19:27.384Z,6.63
2018-05-21T10:21:53.739Z,6.57
2018-05-21T10:24:20.037Z,5.10
2018-05-21T10:26:46.359Z,7.47
2018-05-21T10:38:58.507Z,5.67
2018-05-21T10:41:24.880Z,4.27
2018-05-21T10:43:51.268Z,4.17
2018-05-21T10:46:18.567Z,4.47
2018-05-21T10:48:44.937Z,5.80
2018-05-21T10:51:11.292Z,5.17
2018-05-21T10:53:37.626Z,7.10
2018-05-21T10:56:03.928Z,7.50
2018-05-21T10:58:30.245Z,4.80
2018-05-21T11:00:56.563Z,4.57
2018-05-21T11:03:22.905Z,6.10
2018-05-21T11:05:49.226Z,6.03
2018-05-21T11:08:15.560Z,8.23
2018-05-21T11:10:41.859Z,8.07
2018-05-21T11:13:08.158Z,7.40
2018-05-21T11:15:35.244Z,5.60
2018-05-21T11:18:01.550Z,3.87
2018-05-21T11:20:27.873Z,5.63
2018-05-21T11:22:54.922Z,5.97
2018-05-21T11:25:21.974Z,7.50
2018-05-21T11:27:49.014Z,6.23
2018-05-21T11:30:16.093Z,5.40
2018-05-21T11:32:42.395Z,7.50
2018-05-21T11:35:09.459Z,5.53
2018-05-21T11:37:36.753Z,6.30
2018-05-21T11:40:03.080Z,4.73
2018-05-21T11:42:30.169Z,5.40
2018-05-21T11:44:56.463Z,6.67
2018-05-21T11:47:23.740Z,6.50
2018-05-21T11:49:50.051Z,5.30
2018-05-21T11:52:16.380Z,5.33
2018-05-21T11:54:42.684Z,7.13
2018-05-21T11:57:09.016Z,5.20
2018-05-21T11:59:35.319Z,4.90
2018-05-21T12:02:02.487Z,6.90
2018-05-21T12:04:28.711Z,5.30
2018-05-21T12:06:55.031Z,5.27
2018-05-21T12:09:21.336Z,6.37
2018-05-21T12:11:47.649Z,5.50
2018-05-21T12:14:13.989Z,4.97
2018-05-21T12:16:40.308Z,6.20
2018-05-21T12:19:07.427Z,8.33
2018-05-21T12:21:33.760Z,6.00
2018-05-21T12:24:00.080Z,6.53
2018-05-21T12:26:26.439Z,6.30
2018-05-21T12:28:54.051Z,5.83
2018-05-21T12:31:20.383Z,5.90
2018-05-21T12:33:47.536Z,6.03
2018-05-21T12:36:13.909Z,8.03
2018-05-21T12:38:40.257Z,8.23
2018-05-21T12:41:06.631Z,6.20
2018-05-21T12:43:33.718Z,5.00
2018-05-21T12:46:01.049Z,6.33
2018-05-21T12:48:27.395Z,5.40
2018-05-21T12:50:53.715Z,6.17
2018-05-21T12:53:20.072Z,6.40
2018-05-21T12:55:46.456Z,7.80
2018-05-21T12:58:13.485Z,5.33
2018-05-21T13:00:40.557Z,5.17
2018-05-21T13:03:06.851Z,5.37
2018-05-21T13:05:33.924Z,5.97
2018-05-21T13:08:00.975Z,5.90
2018-05-21T13:10:27.299Z,5.77
2018-05-21T13:12:53.646Z,5.63
2018-05-21T13:15:20.769Z,6.17
2018-05-21T13:17:47.042Z,5.07
2018-05-21T13:20:13.586Z,7.27
2018-05-21T13:22:39.913Z,6.20
2018-05-21T13:25:07.175Z,8.87
2018-05-21T13:27:33.582Z,6.10
2018-05-21T13:30:00.683Z,6.53
2018-05-21T13:32:27.067Z,6.13
2018-05-21T13:34:53.429Z,6.17
2018-05-21T13:37:19.783Z,6.60
2018-05-21T13:39:46.207Z,6.10
2018-05-21T13:42:13.583Z,5.40
2018-05-21T13:44:39.895Z,5.53
2018-05-21T13:47:06.216Z,5.97
2018-05-21T13:49:32.850Z,5.00
2018-05-21T13:51:59.190Z,5.03
2018-05-21T13:54:25.578Z,4.73
2018-05-21T13:56:51.911Z,4.73
2018-05-21T13:59:19.002Z,4.70
2018-05-21T14:01:45.312Z,7.07
2018-05-21T14:04:11.610Z,5.20
2018-05-21T14:06:38.726Z,6.80
2018-05-21T14:09:05.051Z,6.67
2018-05-21T14:11:31.373Z,5.20
2018-05-21T14:13:57.696Z,4.73
2018-05-21T14:16:24.036Z,4.50
2018-05-21T14:18:50.489Z,4.40
2018-05-21T14:21:16.806Z,4.70
2018-05-21T14:23:43.138Z,5.03
2018-05-21T14:26:10.643Z,5.60
2018-05-21T14:28:37.064Z,6.47
2018-05-21T14:31:03.375Z,4.63
2018-05-21T14:33:29.701Z,4.17
2018-05-21T14:35:56.020Z,6.67
2018-05-21T14:38:22.314Z,5.00
2018-05-21T14:40:48.633Z,5.33
2018-05-21T14:43:14.955Z,4.30
2018-05-21T14:45:41.719Z,7.07
2018-05-21T14:48:08.094Z,4.13
2018-05-21T14:50:34.430Z,5.50
2018-05-21T14:53:00.742Z,4.87
2018-05-21T14:55:27.086Z,4.00
2018-05-21T14:57:53.408Z,5.33
2018-05-21T15:00:19.708Z,6.10
2018-05-21T15:02:46.063Z,4.03
2018-05-21T15:05:12.377Z,4.50
2018-05-21T15:07:38.682Z,5.93
2018-05-21T15:10:05.778Z,3.80
2018-05-21T15:12:32.126Z,4.13
2018-05-21T15:14:58.475Z,5.20
2018-05-21T15:17:24.786Z,5.07
2018-05-21T15:19:51.090Z,4.80
2018-05-21T15:22:17.548Z,3.67
2018-05-21T15:24:43.728Z,5.00
2018-05-21T15:27:10.801Z,4.00
2018-05-21T15:29:37.136Z,4.07
2018-05-21T15:32:03.444Z,4.30
2018-05-21T15:34:29.755Z,5.53
2018-05-21T15:36:56.808Z,3.80
2018-05-21T15:39:23.824Z,4.20
2018-05-21T15:41:50.122Z,3.77
2018-05-21T15:44:16.424Z,4.03
2018-05-21T15:46:42.732Z,4.00
2018-05-21T15:49:09.027Z,5.77
2018-05-21T15:51:35.320Z,4.00
2018-05-21T15:54:01.599Z,3.67
2018-05-21T15:56:27.926Z,4.10
2018-05-21T15:58:54.209Z,3.60
2018-05-21T16:01:21.303Z,6.40
2018-05-21T16:03:47.610Z,4.53
2018-05-21T16:06:13.893Z,3.80
2018-05-21T16:08:40.275Z,5.87
2018-05-21T16:11:06.529Z,4.17
2018-05-21T16:13:32.838Z,5.30
2018-05-21T16:15:59.204Z,3.93
2018-05-21T16:18:25.535Z,4.57
2018-05-21T16:20:51.842Z,4.30
2018-05-21T16:23:18.196Z,4.47
2018-05-21T16:25:44.466Z,3.80
2018-05-21T16:28:10.761Z,4.00
2018-05-21T16:30:37.081Z,4.20
2018-05-21T16:33:03.405Z,3.53
2018-05-21T16:35:29.739Z,2.87
2018-05-21T16:37:57.050Z,2.83
2018-05-21T16:40:23.406Z,2.20
2018-05-21T16:42:49.722Z,6.10
2018-05-21T16:45:16.006Z,3.73
2018-05-21T16:47:42.394Z,4.30
2018-05-21T16:50:08.611Z,4.20
2018-05-21T16:52:34.920Z,11.43
2018-05-21T16:55:01.992Z,6.03
2018-05-21T16:57:28.400Z,4.47
2018-05-21T16:59:56.816Z,7.97
2018-05-21T17:02:23.313Z,8.57
2018-05-21T17:04:50.363Z,7.83
2018-05-21T17:07:17.482Z,8.13
2018-05-21T17:09:43.721Z,8.73
2018-05-21T17:12:10.063Z,8.20
2018-05-21T17:14:36.433Z,9.50
2018-05-21T17:17:02.737Z,8.00
2018-05-21T17:19:29.797Z,6.93
2018-05-21T17:21:56.117Z,7.30
2018-05-21T17:24:23.145Z,8.60
2018-05-21T17:26:50.179Z,8.47
2018-05-21T17:29:16.581Z,7.73
2018-05-21T17:31:43.047Z,6.00
2018-05-21T17:34:09.373Z,5.70
2018-05-21T17:36:35.796Z,8.83
2018-05-21T17:39:02.164Z,12.30
2018-05-21T17:41:29.251Z,8.13
2018-05-21T17:43:55.585Z,8.00
2018-05-21T17:46:21.872Z,10.07
2018-05-21T17:48:48.934Z,7.53
2018-05-21T17:51:15.989Z,7.17
2018-05-21T17:53:42.313Z,8.03
2018-05-21T17:56:09.417Z,7.57
2018-05-21T17:58:36.018Z,7.70
2018-05-21T18:01:02.357Z,7.43
2018-05-21T18:03:28.701Z,7.07
2018-05-21T18:05:55.047Z,7.77
2018-05-21T18:08:21.373Z,7.40
2018-05-21T18:10:48.029Z,7.63
2018-05-21T18:13:14.537Z,8.33
2018-05-21T18:15:41.076Z,6.93
2018-05-21T18:18:07.417Z,8.13
2018-05-21T18:20:33.752Z,7.60
2018-05-21T18:23:00.074Z,7.50
2018-05-21T18:25:26.431Z,7.77
2018-05-21T18:27:52.743Z,6.53
2018-05-21T18:30:19.137Z,7.40
2018-05-21T18:32:45.429Z,8.53
2018-05-21T18:35:11.780Z,7.53
2018-05-21T18:37:39.140Z,7.97
2018-05-21T18:40:05.551Z,8.33
2018-05-21T18:42:32.010Z,8.30
2018-05-21T18:44:58.378Z,10.50
2018-05-21T18:47:24.716Z,7.33
2018-05-21T18:49:51.996Z,10.50
2018-05-21T18:52:18.356Z,10.90
2018-05-21T18:54:48.708Z,12.87
2018-05-21T18:57:15.111Z,8.43
2018-05-21T18:59:41.486Z,11.50
2018-05-21T19:02:07.885Z,11.73
2018-05-21T19:04:34.234Z,11.13
2018-05-21T19:07:00.880Z,10.77
2018-05-21T19:09:27.212Z,10.10
2018-05-21T19:11:53.758Z,9.90
2018-05-21T19:14:20.114Z,10.67
2018-05-21T19:16:46.462Z,11.23
2018-05-21T19:19:13.668Z,10.57
2018-05-21T19:21:40.038Z,10.57
2018-05-21T19:24:06.409Z,10.73
2018-05-21T19:26:32.768Z,9.77
2018-05-21T19:28:59.231Z,10.97
2018-05-21T19:31:25.716Z,10.23
2018-05-21T19:33:52.935Z,12.00
2018-05-21T19:36:20.044Z,11.23
2018-05-21T19:38:46.416Z,19.97
2018-05-21T19:50:57.774Z,11.00
2018-05-21T19:53:25.817Z,11.73
2018-05-21T19:55:52.990Z,11.77
2018-05-21T19:58:20.086Z,12.77
2018-05-21T20:00:46.457Z,10.77
2018-05-21T20:03:12.868Z,12.37
2018-05-21T20:05:39.248Z,10.57
2018-05-21T20:08:06.353Z,10.70
2018-05-21T20:10:32.727Z,11.70
2018-05-21T20:12:59.906Z,11.13
2018-05-21T20:15:26.220Z,10.50
2018-05-21T20:17:53.747Z,10.83
2018-05-21T20:20:32.224Z,11.50
2018-05-21T20:22:58.630Z,12.23
2018-05-21T20:25:25.058Z,12.60
2018-05-21T20:27:52.218Z,11.20
2018-05-21T20:30:19.176Z,11.30
2018-05-21T20:32:46.552Z,10.80
2018-05-21T20:35:13.013Z,12.97
2018-05-21T20:37:39.525Z,11.80
2018-05-21T20:40:05.958Z,13.40
2018-05-21T20:42:33.076Z,11.10
2018-05-21T20:45:00.348Z,10.77
2018-05-21T20:47:27.832Z,10.87
2018-05-21T20:49:54.204Z,11.30
2018-05-21T20:52:20.580Z,10.70
2018-05-21T20:54:47.944Z,10.97
2018-05-21T20:57:14.562Z,10.10
2018-05-21T20:59:41.774Z,10.67
2018-05-21T21:02:08.950Z,11.47
2018-05-21T21:04:35.427Z,10.77
2018-05-21T21:07:01.946Z,11.50
2018-05-21T21:09:28.397Z,15.57
2018-05-21T21:11:55.753Z,11.07
2018-05-21T21:14:23.057Z,10.80
2018-05-21T21:16:50.041Z,10.37
2018-05-21T21:19:16.433Z,10.97
2018-05-21T21:21:43.652Z,10.90
2018-05-21T21:24:10.016Z,10.80
2018-05-21T21:26:37.118Z,12.37
2018-05-21T21:29:03.550Z,10.23
2018-05-21T21:31:30.027Z,11.67
2018-05-21T21:33:56.520Z,15.53
2018-05-21T21:36:22.945Z,21.67
2018-05-21T21:38:49.854Z,14.63
2018-05-21T21:41:16.347Z,17.80
2018-05-21T21:43:44.210Z,11.10
2018-05-21T21:46:10.564Z,11.10
2018-05-21T21:48:36.936Z,11.03
2018-05-21T21:51:03.681Z,12.53
2018-05-21T21:53:30.804Z,12.27
2018-05-21T21:55:57.166Z,11.73
2018-05-21T21:58:23.581Z,11.47
2018-05-21T22:00:50.888Z,11.50
2018-05-21T22:03:18.024Z,12.43
2018-05-21T22:05:45.176Z,13.27
2018-05-21T22:17:56.576Z,11.10
2018-05-21T22:20:23.885Z,10.60
2018-05-21T22:22:50.240Z,10.43
2018-05-21T22:25:17.358Z,11.17
2018-05-21T22:27:43.828Z,10.63
2018-05-21T22:30:10.227Z,9.97
2018-05-21T22:32:36.610Z,10.30
2018-05-21T22:35:03.051Z,9.73
2018-05-21T22:37:29.462Z,11.13
2018-05-21T22:39:56.857Z,11.27
2018-05-21T22:42:24.279Z,9.73
2018-05-21T22:44:51.470Z,10.33
2018-05-21T22:47:19.011Z,10.47
2018-05-21T22:49:45.458Z,10.43
2018-05-21T22:52:11.810Z,10.50
2018-05-21T22:54:39.230Z,10.07
2018-05-21T22:57:05.844Z,9.67
2018-05-21T22:59:32.964Z,9.07
2018-05-21T23:01:59.870Z,9.00
2018-05-21T23:04:26.918Z,9.60
2018-05-21T23:06:54.159Z,9.70
2018-05-21T23:09:20.558Z,10.03
2018-05-21T23:11:46.964Z,10.13
2018-05-21T23:14:13.883Z,9.00
2018-05-21T23:16:41.277Z,10.03
2018-05-21T23:19:07.641Z,10.10
2018-05-21T23:21:34.740Z,10.27
2018-05-21T23:24:01.124Z,10.20
2018-05-21T23:26:27.517Z,10.37
2018-05-21T23:28:53.852Z,10.33
2018-05-21T23:31:20.244Z,10.47
2018-05-21T23:33:46.672Z,10.23
2018-05-21T23:36:13.100Z,10.43
2018-05-21T23:38:39.448Z,9.73
2018-05-21T23:41:06.920Z,10.83
2018-05-21T23:43:34.293Z,9.97
2018-05-21T23:46:00.709Z,10.03
2018-05-21T23:48:27.074Z,10.33
2018-05-21T23:50:54.925Z,11.13
2018-05-21T23:53:21.269Z,11.37
2018-05-21T23:55:47.722Z,11.27
2018-05-21T23:58:14.875Z,11.23
